sensor_id;sensor_type;location;lat;lon;timestamp;P1;durP1;ratioP1;P2;durP2;ratioP2
13807;SDS011;40769;51.512;5.494;2022-09-09T00:04:15;1.35;;;1.10;;
13807;SDS011;40769;51.512;5.494;2022-09-09T00:07:37;1.17;;;1.02;;
13807;SDS011;40769;51.512;5.494;2022-09-09T00:09:51;1.20;;;1.10;;
13807;SDS011;40769;51.512;5.494;2022-09-09T00:14:56;1.10;;;1.00;;
13807;SDS011;40769;51.512;5.494;2022-09-09T00:23:38;2.17;;;0.90;;
13807;SDS011;40769;51.512;5.494;2022-09-09T00:28:49;1.27;;;0.90;;
13807;SDS011;40769;51.512;5.494;2022-09-09T00:31:34;4.53;;;0.98;;
13807;SDS011;40769;51.512;5.494;2022-09-09T00:34:12;0.93;;;0.90;;
13807;SDS011;40769;51.512;5.494;2022-09-09T00:36:47;0.70;;;0.70;;
13807;SDS011;40769;51.512;5.494;2022-09-09T00:39:23;0.55;;;0.52;;
13807;SDS011;40769;51.512;5.494;2022-09-09T00:44:52;1.00;;;0.90;;
13807;SDS011;40769;51.512;5.494;2022-09-09T00:50:06;1.13;;;0.80;;
13807;SDS011;40769;51.512;5.494;2022-09-09T00:55:20;1.17;;;1.08;;
13807;SDS011;40769;51.512;5.494;2022-09-09T00:57:51;1.25;;;0.70;;
13807;SDS011;40769;51.512;5.494;2022-09-09T01:00:24;1.00;;;0.80;;
13807;SDS011;40769;51.512;5.494;2022-09-09T01:08:46;1.40;;;0.75;;
13807;SDS011;40769;51.512;5.494;2022-09-09T01:11:22;1.02;;;0.85;;
13807;SDS011;40769;51.512;5.494;2022-09-09T01:13:53;0.95;;;0.80;;
13807;SDS011;40769;51.512;5.494;2022-09-09T01:16:28;0.70;;;0.70;;
13807;SDS011;40769;51.512;5.494;2022-09-09T01:18:56;0.70;;;0.70;;
13807;SDS011;40769;51.512;5.494;2022-09-09T01:21:29;1.35;;;1.00;;
13807;SDS011;40769;51.512;5.494;2022-09-09T01:26:56;2.10;;;1.48;;
13807;SDS011;40769;51.512;5.494;2022-09-09T01:29:25;0.75;;;0.75;;
13807;SDS011;40769;51.512;5.494;2022-09-09T01:31:55;1.63;;;1.15;;
13807;SDS011;40769;51.512;5.494;2022-09-09T01:34:26;1.23;;;1.10;;
13807;SDS011;40769;51.512;5.494;2022-09-09T01:36:59;1.80;;;1.20;;
13807;SDS011;40769;51.512;5.494;2022-09-09T01:39:26;1.27;;;0.90;;
13807;SDS011;40769;51.512;5.494;2022-09-09T01:41:52;1.58;;;1.00;;
13807;SDS011;40769;51.512;5.494;2022-09-09T01:44:20;0.88;;;0.77;;
13807;SDS011;40769;51.512;5.494;2022-09-09T01:46:46;1.23;;;0.75;;
13807;SDS011;40769;51.512;5.494;2022-09-09T01:49:12;1.05;;;0.93;;
13807;SDS011;40769;51.512;5.494;2022-09-09T01:51:38;1.77;;;0.90;;
13807;SDS011;40769;51.512;5.494;2022-09-09T01:54:05;1.77;;;1.05;;
13807;SDS011;40769;51.512;5.494;2022-09-09T02:02:19;1.13;;;0.98;;
13807;SDS011;40769;51.512;5.494;2022-09-09T02:04:59;1.33;;;1.10;;
13807;SDS011;40769;51.512;5.494;2022-09-09T02:07:49;1.10;;;1.00;;
13807;SDS011;40769;51.512;5.494;2022-09-09T02:10:22;1.42;;;0.88;;
13807;SDS011;40769;51.512;5.494;2022-09-09T02:12:55;0.85;;;0.85;;
13807;SDS011;40769;51.512;5.494;2022-09-09T02:15:30;1.23;;;1.00;;
13807;SDS011;40769;51.512;5.494;2022-09-09T02:18:04;1.60;;;1.00;;
13807;SDS011;40769;51.512;5.494;2022-09-09T02:20:36;1.10;;;1.00;;
13807;SDS011;40769;51.512;5.494;2022-09-09T02:23:03;2.13;;;1.00;;
13807;SDS011;40769;51.512;5.494;2022-09-09T02:25:30;1.20;;;0.90;;
13807;SDS011;40769;51.512;5.494;2022-09-09T02:27:58;1.15;;;0.90;;
13807;SDS011;40769;51.512;5.494;2022-09-09T02:30:24;1.33;;;1.10;;
13807;SDS011;40769;51.512;5.494;2022-09-09T02:32:50;0.80;;;0.80;;
13807;SDS011;40769;51.512;5.494;2022-09-09T02:35:22;1.27;;;1.00;;
13807;SDS011;40769;51.512;5.494;2022-09-09T02:37:50;1.10;;;1.00;;
13807;SDS011;40769;51.512;5.494;2022-09-09T02:40:19;1.10;;;0.93;;
13807;SDS011;40769;51.512;5.494;2022-09-09T02:42:47;1.80;;;1.10;;
13807;SDS011;40769;51.512;5.494;2022-09-09T02:45:15;1.35;;;0.98;;
13807;SDS011;40769;51.512;5.494;2022-09-09T02:55:48;1.23;;;0.93;;
13807;SDS011;40769;51.512;5.494;2022-09-09T02:58:41;1.05;;;0.93;;
13807;SDS011;40769;51.512;5.494;2022-09-09T03:01:08;1.10;;;1.05;;
13807;SDS011;40769;51.512;5.494;2022-09-09T03:03:33;2.03;;;1.15;;
13807;SDS011;40769;51.512;5.494;2022-09-09T03:05:59;1.88;;;1.10;;
13807;SDS011;40769;51.512;5.494;2022-09-09T03:08:25;1.10;;;0.90;;
13807;SDS011;40769;51.512;5.494;2022-09-09T03:10:53;2.35;;;1.30;;
13807;SDS011;40769;51.512;5.494;2022-09-09T03:13:19;1.40;;;1.30;;
13807;SDS011;40769;51.512;5.494;2022-09-09T03:15:45;1.45;;;1.35;;
13807;SDS011;40769;51.512;5.494;2022-09-09T03:18:13;1.45;;;1.08;;
13807;SDS011;40769;51.512;5.494;2022-09-09T03:20:38;1.80;;;1.00;;
13807;SDS011;40769;51.512;5.494;2022-09-09T03:23:07;1.30;;;1.10;;
13807;SDS011;40769;51.512;5.494;2022-09-09T03:25:33;1.92;;;1.20;;
13807;SDS011;40769;51.512;5.494;2022-09-09T03:27:58;1.42;;;1.10;;
13807;SDS011;40769;51.512;5.494;2022-09-09T03:30:25;2.05;;;1.63;;
13807;SDS011;40769;51.512;5.494;2022-09-09T03:32:51;1.90;;;1.40;;
13807;SDS011;40769;51.512;5.494;2022-09-09T03:35:17;1.80;;;1.50;;
13807;SDS011;40769;51.512;5.494;2022-09-09T03:37:43;1.73;;;1.33;;
13807;SDS011;40769;51.512;5.494;2022-09-09T03:40:09;1.83;;;1.00;;
13807;SDS011;40769;51.512;5.494;2022-09-09T03:42:35;1.92;;;1.00;;
13807;SDS011;40769;51.512;5.494;2022-09-09T03:45:02;1.10;;;1.00;;
13807;SDS011;40769;51.512;5.494;2022-09-09T03:47:29;2.08;;;1.20;;
13807;SDS011;40769;51.512;5.494;2022-09-09T03:49:54;2.53;;;1.13;;
13807;SDS011;40769;51.512;5.494;2022-09-09T03:52:20;1.77;;;1.15;;
13807;SDS011;40769;51.512;5.494;2022-09-09T03:54:49;1.90;;;1.00;;
13807;SDS011;40769;51.512;5.494;2022-09-09T03:57:16;1.45;;;1.35;;
13807;SDS011;40769;51.512;5.494;2022-09-09T03:59:42;1.35;;;1.20;;
13807;SDS011;40769;51.512;5.494;2022-09-09T04:02:08;2.17;;;1.13;;
13807;SDS011;40769;51.512;5.494;2022-09-09T04:04:34;1.50;;;1.10;;
13807;SDS011;40769;51.512;5.494;2022-09-09T04:06:59;2.85;;;1.48;;
13807;SDS011;40769;51.512;5.494;2022-09-09T04:09:25;1.50;;;1.20;;
13807;SDS011;40769;51.512;5.494;2022-09-09T04:11:51;1.50;;;1.30;;
13807;SDS011;40769;51.512;5.494;2022-09-09T04:14:18;2.47;;;1.30;;
13807;SDS011;40769;51.512;5.494;2022-09-09T04:16:44;1.90;;;1.27;;
13807;SDS011;40769;51.512;5.494;2022-09-09T04:19:11;1.30;;;1.17;;
13807;SDS011;40769;51.512;5.494;2022-09-09T04:21:38;2.83;;;1.20;;
13807;SDS011;40769;51.512;5.494;2022-09-09T04:24:05;1.08;;;0.90;;
13807;SDS011;40769;51.512;5.494;2022-09-09T04:26:32;1.40;;;1.30;;
13807;SDS011;40769;51.512;5.494;2022-09-09T04:28:58;1.35;;;1.25;;
13807;SDS011;40769;51.512;5.494;2022-09-09T04:31:23;1.52;;;1.20;;
13807;SDS011;40769;51.512;5.494;2022-09-09T04:33:49;2.55;;;1.50;;
13807;SDS011;40769;51.512;5.494;2022-09-09T04:36:16;1.65;;;1.50;;
13807;SDS011;40769;51.512;5.494;2022-09-09T04:38:43;1.60;;;1.15;;
13807;SDS011;40769;51.512;5.494;2022-09-09T04:41:09;2.10;;;1.20;;
13807;SDS011;40769;51.512;5.494;2022-09-09T04:43:36;1.63;;;1.17;;
13807;SDS011;40769;51.512;5.494;2022-09-09T04:46:02;2.47;;;1.20;;
13807;SDS011;40769;51.512;5.494;2022-09-09T04:48:28;1.45;;;1.30;;
13807;SDS011;40769;51.512;5.494;2022-09-09T04:51:04;2.38;;;1.30;;
13807;SDS011;40769;51.512;5.494;2022-09-09T04:53:31;1.95;;;1.30;;
13807;SDS011;40769;51.512;5.494;2022-09-09T04:56:05;1.77;;;1.30;;
13807;SDS011;40769;51.512;5.494;2022-09-09T04:58:35;1.40;;;1.08;;
13807;SDS011;40769;51.512;5.494;2022-09-09T05:01:09;2.20;;;1.35;;
13807;SDS011;40769;51.512;5.494;2022-09-09T05:03:39;1.52;;;1.10;;
13807;SDS011;40769;51.512;5.494;2022-09-09T05:06:05;1.50;;;1.30;;
13807;SDS011;40769;51.512;5.494;2022-09-09T05:08:33;2.78;;;1.33;;
13807;SDS011;40769;51.512;5.494;2022-09-09T05:10:59;1.45;;;1.15;;
13807;SDS011;40769;51.512;5.494;2022-09-09T05:13:25;2.00;;;1.20;;
13807;SDS011;40769;51.512;5.494;2022-09-09T05:15:52;2.40;;;1.50;;
13807;SDS011;40769;51.512;5.494;2022-09-09T05:18:18;2.03;;;1.20;;
13807;SDS011;40769;51.512;5.494;2022-09-09T05:20:44;1.77;;;1.10;;
13807;SDS011;40769;51.512;5.494;2022-09-09T05:23:10;2.05;;;1.08;;
13807;SDS011;40769;51.512;5.494;2022-09-09T05:25:38;1.90;;;0.90;;
13807;SDS011;40769;51.512;5.494;2022-09-09T05:28:05;1.63;;;0.95;;
13807;SDS011;40769;51.512;5.494;2022-09-09T05:30:32;1.88;;;1.10;;
13807;SDS011;40769;51.512;5.494;2022-09-09T05:32:58;1.17;;;1.08;;
13807;SDS011;40769;51.512;5.494;2022-09-09T05:35:24;2.17;;;1.20;;
13807;SDS011;40769;51.512;5.494;2022-09-09T05:37:50;2.30;;;1.05;;
13807;SDS011;40769;51.512;5.494;2022-09-09T05:40:16;2.65;;;1.30;;
13807;SDS011;40769;51.512;5.494;2022-09-09T05:42:41;2.17;;;1.30;;
13807;SDS011;40769;51.512;5.494;2022-09-09T05:45:08;1.63;;;1.35;;
13807;SDS011;40769;51.512;5.494;2022-09-09T05:47:34;2.33;;;1.50;;
13807;SDS011;40769;51.512;5.494;2022-09-09T05:50:02;1.75;;;1.30;;
13807;SDS011;40769;51.512;5.494;2022-09-09T05:52:28;3.20;;;1.50;;
13807;SDS011;40769;51.512;5.494;2022-09-09T05:54:53;2.88;;;1.10;;
13807;SDS011;40769;51.512;5.494;2022-09-09T05:57:20;1.30;;;1.17;;
13807;SDS011;40769;51.512;5.494;2022-09-09T05:59:45;2.10;;;1.30;;
13807;SDS011;40769;51.512;5.494;2022-09-09T06:02:11;2.35;;;1.30;;
13807;SDS011;40769;51.512;5.494;2022-09-09T06:04:38;4.10;;;1.25;;
13807;SDS011;40769;51.512;5.494;2022-09-09T06:07:04;2.35;;;1.33;;
13807;SDS011;40769;51.512;5.494;2022-09-09T06:09:30;2.22;;;1.15;;
13807;SDS011;40769;51.512;5.494;2022-09-09T06:11:56;1.88;;;1.20;;
13807;SDS011;40769;51.512;5.494;2022-09-09T06:14:23;2.25;;;1.70;;
13807;SDS011;40769;51.512;5.494;2022-09-09T06:16:50;3.13;;;1.60;;
13807;SDS011;40769;51.512;5.494;2022-09-09T06:19:16;3.08;;;1.80;;
13807;SDS011;40769;51.512;5.494;2022-09-09T06:21:42;2.72;;;1.90;;
13807;SDS011;40769;51.512;5.494;2022-09-09T06:24:09;3.22;;;1.77;;
13807;SDS011;40769;51.512;5.494;2022-09-09T06:26:36;2.22;;;1.20;;
13807;SDS011;40769;51.512;5.494;2022-09-09T06:29:06;2.75;;;1.73;;
13807;SDS011;40769;51.512;5.494;2022-09-09T06:31:33;3.35;;;1.75;;
13807;SDS011;40769;51.512;5.494;2022-09-09T06:34:03;3.33;;;1.83;;
13807;SDS011;40769;51.512;5.494;2022-09-09T06:36:33;2.85;;;1.95;;
13807;SDS011;40769;51.512;5.494;2022-09-09T06:39:01;3.53;;;2.10;;
13807;SDS011;40769;51.512;5.494;2022-09-09T06:41:29;3.42;;;1.90;;
13807;SDS011;40769;51.512;5.494;2022-09-09T06:43:56;4.05;;;1.98;;
13807;SDS011;40769;51.512;5.494;2022-09-09T06:46:22;3.05;;;1.70;;
13807;SDS011;40769;51.512;5.494;2022-09-09T06:48:53;3.05;;;1.98;;
13807;SDS011;40769;51.512;5.494;2022-09-09T06:51:24;3.25;;;1.70;;
13807;SDS011;40769;51.512;5.494;2022-09-09T06:53:55;4.85;;;2.00;;
13807;SDS011;40769;51.512;5.494;2022-09-09T06:56:27;3.08;;;1.77;;
13807;SDS011;40769;51.512;5.494;2022-09-09T06:58:55;4.43;;;2.00;;
13807;SDS011;40769;51.512;5.494;2022-09-09T07:01:24;3.25;;;1.90;;
13807;SDS011;40769;51.512;5.494;2022-09-09T07:03:52;3.22;;;1.90;;
13807;SDS011;40769;51.512;5.494;2022-09-09T07:06:38;4.07;;;1.70;;
13807;SDS011;40769;51.512;5.494;2022-09-09T07:09:06;4.85;;;1.98;;
13807;SDS011;40769;51.512;5.494;2022-09-09T07:11:36;3.25;;;1.90;;
13807;SDS011;40769;51.512;5.494;2022-09-09T07:14:04;3.53;;;2.03;;
13807;SDS011;40769;51.512;5.494;2022-09-09T07:16:29;3.13;;;1.80;;
13807;SDS011;40769;51.512;5.494;2022-09-09T07:18:58;3.45;;;2.03;;
13807;SDS011;40769;51.512;5.494;2022-09-09T07:21:24;3.88;;;1.95;;
13807;SDS011;40769;51.512;5.494;2022-09-09T07:23:53;3.60;;;1.80;;
13807;SDS011;40769;51.512;5.494;2022-09-09T07:26:20;4.20;;;2.13;;
13807;SDS011;40769;51.512;5.494;2022-09-09T07:28:48;3.15;;;1.63;;
13807;SDS011;40769;51.512;5.494;2022-09-09T07:31:15;3.92;;;1.98;;
13807;SDS011;40769;51.512;5.494;2022-09-09T07:33:46;4.10;;;1.70;;
13807;SDS011;40769;51.512;5.494;2022-09-09T07:36:16;5.90;;;2.30;;
13807;SDS011;40769;51.512;5.494;2022-09-09T07:38:48;3.55;;;1.67;;
13807;SDS011;40769;51.512;5.494;2022-09-09T07:41:17;3.72;;;1.98;;
13807;SDS011;40769;51.512;5.494;2022-09-09T07:43:45;2.75;;;1.50;;
13807;SDS011;40769;51.512;5.494;2022-09-09T07:46:13;3.10;;;1.50;;
13807;SDS011;40769;51.512;5.494;2022-09-09T07:48:44;2.83;;;1.40;;
13807;SDS011;40769;51.512;5.494;2022-09-09T07:51:12;3.85;;;1.70;;
13807;SDS011;40769;51.512;5.494;2022-09-09T07:53:43;3.50;;;1.60;;
13807;SDS011;40769;51.512;5.494;2022-09-09T07:56:10;2.65;;;1.30;;
13807;SDS011;40769;51.512;5.494;2022-09-09T07:58:38;2.30;;;1.60;;
13807;SDS011;40769;51.512;5.494;2022-09-09T08:01:39;2.67;;;1.73;;
13807;SDS011;40769;51.512;5.494;2022-09-09T08:04:05;3.13;;;1.63;;
13807;SDS011;40769;51.512;5.494;2022-09-09T08:06:34;4.25;;;1.85;;
13807;SDS011;40769;51.512;5.494;2022-09-09T08:09:04;3.35;;;1.92;;
13807;SDS011;40769;51.512;5.494;2022-09-09T08:11:31;2.90;;;1.70;;
13807;SDS011;40769;51.512;5.494;2022-09-09T08:13:58;2.83;;;1.60;;
13807;SDS011;40769;51.512;5.494;2022-09-09T08:16:25;5.40;;;2.20;;
13807;SDS011;40769;51.512;5.494;2022-09-09T08:18:52;2.42;;;1.85;;
13807;SDS011;40769;51.512;5.494;2022-09-09T08:21:22;3.95;;;1.98;;
13807;SDS011;40769;51.512;5.494;2022-09-09T08:23:53;4.10;;;2.20;;
13807;SDS011;40769;51.512;5.494;2022-09-09T08:26:20;4.18;;;2.35;;
13807;SDS011;40769;51.512;5.494;2022-09-09T08:28:51;3.55;;;2.00;;
13807;SDS011;40769;51.512;5.494;2022-09-09T08:31:19;3.67;;;2.15;;
13807;SDS011;40769;51.512;5.494;2022-09-09T08:33:47;4.88;;;2.40;;
13807;SDS011;40769;51.512;5.494;2022-09-09T08:36:14;3.08;;;1.83;;
13807;SDS011;40769;51.512;5.494;2022-09-09T08:38:46;3.38;;;1.70;;
13807;SDS011;40769;51.512;5.494;2022-09-09T08:52:18;2.90;;;1.60;;
13807;SDS011;40769;51.512;5.494;2022-09-09T08:54:47;2.95;;;1.73;;
13807;SDS011;40769;51.512;5.494;2022-09-09T08:57:17;2.50;;;1.67;;
13807;SDS011;40769;51.512;5.494;2022-09-09T08:59:53;4.25;;;2.08;;
13807;SDS011;40769;51.512;5.494;2022-09-09T09:02:24;2.88;;;1.75;;
13807;SDS011;40769;51.512;5.494;2022-09-09T09:05:05;3.88;;;1.95;;
13807;SDS011;40769;51.512;5.494;2022-09-09T09:10:28;4.32;;;2.20;;
13807;SDS011;40769;51.512;5.494;2022-09-09T09:13:14;3.05;;;1.48;;
13807;SDS011;40769;51.512;5.494;2022-09-09T09:15:41;4.32;;;1.95;;
13807;SDS011;40769;51.512;5.494;2022-09-09T09:18:10;3.20;;;1.67;;
13807;SDS011;40769;51.512;5.494;2022-09-09T09:20:50;4.03;;;2.30;;
13807;SDS011;40769;51.512;5.494;2022-09-09T09:23:24;3.00;;;1.58;;
13807;SDS011;40769;51.512;5.494;2022-09-09T09:25:53;2.92;;;1.63;;
13807;SDS011;40769;51.512;5.494;2022-09-09T09:28:25;3.03;;;1.83;;
13807;SDS011;40769;51.512;5.494;2022-09-09T09:30:55;3.10;;;1.77;;
13807;SDS011;40769;51.512;5.494;2022-09-09T09:35:54;2.97;;;1.75;;
13807;SDS011;40769;51.512;5.494;2022-09-09T09:38:25;3.53;;;1.60;;
13807;SDS011;40769;51.512;5.494;2022-09-09T09:40:53;2.97;;;1.60;;
13807;SDS011;40769;51.512;5.494;2022-09-09T09:43:24;3.58;;;1.55;;
13807;SDS011;40769;51.512;5.494;2022-09-09T09:45:51;3.05;;;1.50;;
13807;SDS011;40769;51.512;5.494;2022-09-09T09:48:17;3.13;;;1.75;;
13807;SDS011;40769;51.512;5.494;2022-09-09T09:53:37;4.25;;;1.60;;
13807;SDS011;40769;51.512;5.494;2022-09-09T09:56:05;2.45;;;1.45;;
13807;SDS011;40769;51.512;5.494;2022-09-09T10:01:23;3.50;;;1.50;;
13807;SDS011;40769;51.512;5.494;2022-09-09T10:03:53;4.15;;;1.73;;
13807;SDS011;40769;51.512;5.494;2022-09-09T10:06:53;2.85;;;1.80;;
13807;SDS011;40769;51.512;5.494;2022-09-09T10:15:02;3.08;;;1.45;;
13807;SDS011;40769;51.512;5.494;2022-09-09T10:18:04;2.88;;;1.30;;
13807;SDS011;40769;51.512;5.494;2022-09-09T10:21:22;2.55;;;1.48;;
13807;SDS011;40769;51.512;5.494;2022-09-09T10:34:43;2.10;;;1.50;;
13807;SDS011;40769;51.512;5.494;2022-09-09T10:39:53;3.22;;;1.73;;
13807;SDS011;40769;51.512;5.494;2022-09-09T10:42:44;2.88;;;1.58;;
13807;SDS011;40769;51.512;5.494;2022-09-09T10:48:00;2.72;;;1.50;;
13807;SDS011;40769;51.512;5.494;2022-09-09T10:50:40;2.00;;;1.33;;
13807;SDS011;40769;51.512;5.494;2022-09-09T10:53:14;3.25;;;1.95;;
13807;SDS011;40769;51.512;5.494;2022-09-09T10:55:48;1.85;;;1.25;;
13807;SDS011;40769;51.512;5.494;2022-09-09T10:58:25;2.80;;;1.80;;
13807;SDS011;40769;51.512;5.494;2022-09-09T11:00:56;3.95;;;1.63;;
13807;SDS011;40769;51.512;5.494;2022-09-09T11:03:28;1.95;;;1.50;;
13807;SDS011;40769;51.512;5.494;2022-09-09T11:05:58;3.45;;;1.75;;
13807;SDS011;40769;51.512;5.494;2022-09-09T11:08:45;2.22;;;1.70;;
13807;SDS011;40769;51.512;5.494;2022-09-09T11:13:44;1.85;;;1.48;;
13807;SDS011;40769;51.512;5.494;2022-09-09T11:16:19;3.00;;;1.50;;
13807;SDS011;40769;51.512;5.494;2022-09-09T11:22:04;3.15;;;1.60;;
13807;SDS011;40769;51.512;5.494;2022-09-09T11:24:59;2.08;;;1.60;;
13807;SDS011;40769;51.512;5.494;2022-09-09T11:36:06;1.63;;;1.30;;
13807;SDS011;40769;51.512;5.494;2022-09-09T11:38:52;1.98;;;1.40;;
13807;SDS011;40769;51.512;5.494;2022-09-09T11:41:32;4.47;;;1.70;;
13807;SDS011;40769;51.512;5.494;2022-09-09T11:43:59;2.67;;;1.77;;
13807;SDS011;40769;51.512;5.494;2022-09-09T11:46:36;2.03;;;1.67;;
13807;SDS011;40769;51.512;5.494;2022-09-09T11:49:04;2.45;;;1.45;;
13807;SDS011;40769;51.512;5.494;2022-09-09T11:51:46;2.25;;;1.13;;
13807;SDS011;40769;51.512;5.494;2022-09-09T11:54:32;2.47;;;1.40;;
13807;SDS011;40769;51.512;5.494;2022-09-09T11:57:42;1.75;;;1.23;;
13807;SDS011;40769;51.512;5.494;2022-09-09T12:00:02;2.50;;;1.45;;
13807;SDS011;40769;51.512;5.494;2022-09-09T12:02:29;2.45;;;1.50;;
13807;SDS011;40769;51.512;5.494;2022-09-09T12:05:06;1.88;;;1.20;;
13807;SDS011;40769;51.512;5.494;2022-09-09T12:07:41;4.22;;;1.67;;
13807;SDS011;40769;51.512;5.494;2022-09-09T12:10:22;2.38;;;1.60;;
13807;SDS011;40769;51.512;5.494;2022-09-09T12:12:51;2.50;;;1.75;;
13807;SDS011;40769;51.512;5.494;2022-09-09T12:15:23;3.63;;;1.85;;
13807;SDS011;40769;51.512;5.494;2022-09-09T12:17:53;3.88;;;1.83;;
13807;SDS011;40769;51.512;5.494;2022-09-09T12:26:01;1.77;;;1.40;;
13807;SDS011;40769;51.512;5.494;2022-09-09T12:42:46;2.85;;;1.60;;
13807;SDS011;40769;51.512;5.494;2022-09-09T12:45:19;2.80;;;1.80;;
13807;SDS011;40769;51.512;5.494;2022-09-09T12:47:56;2.80;;;1.50;;
13807;SDS011;40769;51.512;5.494;2022-09-09T12:50:32;2.17;;;1.30;;
13807;SDS011;40769;51.512;5.494;2022-09-09T12:53:16;2.28;;;1.35;;
13807;SDS011;40769;51.512;5.494;2022-09-09T12:55:57;2.55;;;1.52;;
13807;SDS011;40769;51.512;5.494;2022-09-09T12:58:27;2.47;;;1.45;;
13807;SDS011;40769;51.512;5.494;2022-09-09T13:00:58;2.22;;;1.58;;
13807;SDS011;40769;51.512;5.494;2022-09-09T13:03:25;1.65;;;1.50;;
13807;SDS011;40769;51.512;5.494;2022-09-09T13:05:52;2.83;;;1.58;;
13807;SDS011;40769;51.512;5.494;2022-09-09T13:08:19;2.25;;;1.17;;
13807;SDS011;40769;51.512;5.494;2022-09-09T13:10:55;2.28;;;1.45;;
13807;SDS011;40769;51.512;5.494;2022-09-09T13:14:12;2.28;;;1.50;;
13807;SDS011;40769;51.512;5.494;2022-09-09T13:16:29;3.42;;;1.63;;
13807;SDS011;40769;51.512;5.494;2022-09-09T13:18:57;4.78;;;2.03;;
13807;SDS011;40769;51.512;5.494;2022-09-09T13:21:31;3.00;;;1.73;;
13807;SDS011;40769;51.512;5.494;2022-09-09T13:24:03;1.75;;;1.20;;
13807;SDS011;40769;51.512;5.494;2022-09-09T13:26:59;3.00;;;1.92;;
13807;SDS011;40769;51.512;5.494;2022-09-09T13:29:27;1.98;;;1.42;;
13807;SDS011;40769;51.512;5.494;2022-09-09T13:31:53;2.15;;;1.50;;
13807;SDS011;40769;51.512;5.494;2022-09-09T13:36:57;3.05;;;1.67;;
13807;SDS011;40769;51.512;5.494;2022-09-09T13:39:30;2.78;;;1.50;;
13807;SDS011;40769;51.512;5.494;2022-09-09T13:41:58;2.42;;;1.20;;
13807;SDS011;40769;51.512;5.494;2022-09-09T13:44:25;2.40;;;1.25;;
13807;SDS011;40769;51.512;5.494;2022-09-09T13:47:04;2.22;;;1.50;;
13807;SDS011;40769;51.512;5.494;2022-09-09T13:49:50;2.72;;;1.50;;
13807;SDS011;40769;51.512;5.494;2022-09-09T13:52:16;2.78;;;1.92;;
13807;SDS011;40769;51.512;5.494;2022-09-09T13:54:52;3.15;;;1.83;;
13807;SDS011;40769;51.512;5.494;2022-09-09T13:59:47;2.13;;;1.40;;
13807;SDS011;40769;51.512;5.494;2022-09-09T14:02:14;2.22;;;1.02;;
13807;SDS011;40769;51.512;5.494;2022-09-09T14:04:41;1.92;;;1.20;;
13807;SDS011;40769;51.512;5.494;2022-09-09T14:07:14;1.58;;;1.15;;
13807;SDS011;40769;51.512;5.494;2022-09-09T14:09:41;2.20;;;1.23;;
13807;SDS011;40769;51.512;5.494;2022-09-09T14:12:10;2.45;;;1.45;;
13807;SDS011;40769;51.512;5.494;2022-09-09T14:14:37;2.53;;;1.48;;
13807;SDS011;40769;51.512;5.494;2022-09-09T14:17:03;1.75;;;1.10;;
13807;SDS011;40769;51.512;5.494;2022-09-09T14:19:29;1.90;;;1.38;;
13807;SDS011;40769;51.512;5.494;2022-09-09T14:21:58;1.95;;;1.20;;
13807;SDS011;40769;51.512;5.494;2022-09-09T14:24:24;1.73;;;1.10;;
13807;SDS011;40769;51.512;5.494;2022-09-09T14:26:50;2.38;;;1.17;;
13807;SDS011;40769;51.512;5.494;2022-09-09T14:29:16;2.47;;;1.30;;
13807;SDS011;40769;51.512;5.494;2022-09-09T14:31:41;2.35;;;1.33;;
13807;SDS011;40769;51.512;5.494;2022-09-09T14:34:07;2.10;;;1.25;;
13807;SDS011;40769;51.512;5.494;2022-09-09T14:36:32;3.13;;;1.77;;
13807;SDS011;40769;51.512;5.494;2022-09-09T14:38:58;2.72;;;1.70;;
13807;SDS011;40769;51.512;5.494;2022-09-09T14:41:24;2.38;;;1.75;;
13807;SDS011;40769;51.512;5.494;2022-09-09T14:43:50;2.90;;;1.83;;
13807;SDS011;40769;51.512;5.494;2022-09-09T14:46:17;2.70;;;1.85;;
13807;SDS011;40769;51.512;5.494;2022-09-09T14:48:44;1.75;;;1.35;;
13807;SDS011;40769;51.512;5.494;2022-09-09T14:51:16;2.38;;;1.15;;
13807;SDS011;40769;51.512;5.494;2022-09-09T14:53:44;2.25;;;1.30;;
13807;SDS011;40769;51.512;5.494;2022-09-09T14:56:15;2.25;;;1.23;;
13807;SDS011;40769;51.512;5.494;2022-09-09T14:58:42;1.40;;;1.10;;
13807;SDS011;40769;51.512;5.494;2022-09-09T15:01:09;1.67;;;1.00;;
13807;SDS011;40769;51.512;5.494;2022-09-09T15:03:37;1.73;;;1.05;;
13807;SDS011;40769;51.512;5.494;2022-09-09T15:06:13;2.53;;;1.33;;
13807;SDS011;40769;51.512;5.494;2022-09-09T15:08:40;2.33;;;1.40;;
13807;SDS011;40769;51.512;5.494;2022-09-09T15:11:08;1.70;;;1.20;;
13807;SDS011;40769;51.512;5.494;2022-09-09T15:13:35;3.20;;;2.50;;
13807;SDS011;40769;51.512;5.494;2022-09-09T15:16:12;2.95;;;2.00;;
13807;SDS011;40769;51.512;5.494;2022-09-09T15:18:39;2.75;;;1.77;;
13807;SDS011;40769;51.512;5.494;2022-09-09T15:21:13;2.20;;;1.67;;
13807;SDS011;40769;51.512;5.494;2022-09-09T15:23:44;1.95;;;1.00;;
13807;SDS011;40769;51.512;5.494;2022-09-09T15:26:10;2.78;;;1.85;;
13807;SDS011;40769;51.512;5.494;2022-09-09T15:28:37;2.35;;;1.30;;
13807;SDS011;40769;51.512;5.494;2022-09-09T15:31:08;1.33;;;0.90;;
13807;SDS011;40769;51.512;5.494;2022-09-09T15:33:36;1.98;;;1.10;;
13807;SDS011;40769;51.512;5.494;2022-09-09T15:36:12;1.90;;;0.70;;
13807;SDS011;40769;51.512;5.494;2022-09-09T15:38:39;2.10;;;1.08;;
13807;SDS011;40769;51.512;5.494;2022-09-09T15:41:05;6.60;;;0.80;;
13807;SDS011;40769;51.512;5.494;2022-09-09T15:43:31;1.75;;;0.60;;
13807;SDS011;40769;51.512;5.494;2022-09-09T15:45:58;0.85;;;0.60;;
13807;SDS011;40769;51.512;5.494;2022-09-09T15:48:31;1.15;;;0.60;;
13807;SDS011;40769;51.512;5.494;2022-09-09T15:51:01;1.27;;;0.60;;
13807;SDS011;40769;51.512;5.494;2022-09-09T15:53:28;1.42;;;0.80;;
13807;SDS011;40769;51.512;5.494;2022-09-09T15:55:55;1.40;;;0.80;;
13807;SDS011;40769;51.512;5.494;2022-09-09T15:58:20;1.40;;;1.00;;
13807;SDS011;40769;51.512;5.494;2022-09-09T16:00:46;1.38;;;1.10;;
13807;SDS011;40769;51.512;5.494;2022-09-09T16:03:12;1.30;;;1.08;;
13807;SDS011;40769;51.512;5.494;2022-09-09T16:05:38;2.75;;;1.30;;
13807;SDS011;40769;51.512;5.494;2022-09-09T16:08:03;1.05;;;0.90;;
13807;SDS011;40769;51.512;5.494;2022-09-09T16:10:29;1.58;;;1.00;;
13807;SDS011;40769;51.512;5.494;2022-09-09T16:12:55;0.85;;;0.85;;
13807;SDS011;40769;51.512;5.494;2022-09-09T16:15:21;1.83;;;1.67;;
13807;SDS011;40769;51.512;5.494;2022-09-09T16:17:48;2.35;;;1.50;;
13807;SDS011;40769;51.512;5.494;2022-09-09T16:20:14;1.52;;;1.42;;
13807;SDS011;40769;51.512;5.494;2022-09-09T16:22:39;1.77;;;1.67;;
13807;SDS011;40769;51.512;5.494;2022-09-09T16:25:05;2.60;;;2.28;;
13807;SDS011;40769;51.512;5.494;2022-09-09T16:27:31;3.50;;;2.08;;
13807;SDS011;40769;51.512;5.494;2022-09-09T16:29:57;2.00;;;1.80;;
13807;SDS011;40769;51.512;5.494;2022-09-09T16:32:22;1.83;;;1.73;;
13807;SDS011;40769;51.512;5.494;2022-09-09T16:34:48;2.10;;;1.90;;
13807;SDS011;40769;51.512;5.494;2022-09-09T16:37:14;2.15;;;1.95;;
13807;SDS011;40769;51.512;5.494;2022-09-09T16:39:39;2.38;;;2.00;;
13807;SDS011;40769;51.512;5.494;2022-09-09T16:42:05;2.67;;;2.03;;
13807;SDS011;40769;51.512;5.494;2022-09-09T16:44:30;5.57;;;2.90;;
13807;SDS011;40769;51.512;5.494;2022-09-09T16:46:56;2.25;;;2.00;;
13807;SDS011;40769;51.512;5.494;2022-09-09T16:49:21;3.08;;;2.33;;
13807;SDS011;40769;51.512;5.494;2022-09-09T16:51:48;1.90;;;1.70;;
13807;SDS011;40769;51.512;5.494;2022-09-09T16:54:15;1.50;;;1.40;;
13807;SDS011;40769;51.512;5.494;2022-09-09T16:56:42;2.22;;;2.00;;
13807;SDS011;40769;51.512;5.494;2022-09-09T16:59:10;1.55;;;1.45;;
13807;SDS011;40769;51.512;5.494;2022-09-09T17:01:38;2.50;;;1.63;;
13807;SDS011;40769;51.512;5.494;2022-09-09T17:04:07;2.42;;;1.67;;
13807;SDS011;40769;51.512;5.494;2022-09-09T17:06:34;3.90;;;2.92;;
13807;SDS011;40769;51.512;5.494;2022-09-09T17:09:03;2.88;;;2.40;;
13807;SDS011;40769;51.512;5.494;2022-09-09T17:11:31;2.22;;;2.00;;
13807;SDS011;40769;51.512;5.494;2022-09-09T17:13:57;1.88;;;1.70;;